BAW0818 EHAM-EGBB
Flight info
| Callsign | BAW0818 |
|---|---|
| Flight time | N/A |
| Altitude | 34000 |
| Route | IDRID L980 LAM L610 HEMEL |
| Aircraft | B738/M-SDE2E3FGHIRWXY/LB1 |
Departure
| Time | 2026-04-29 13:09 |
|---|---|
| Airport | Amsterdam Airport Schiphol (EHAM) |
Arrival
| Time | N/A |
|---|---|
| Airport | Birmingham Airport (EGBB) |
| Time | Latitude | Longitude | Altitude | Speed | Heading |
|---|---|---|---|---|---|
| 2026-04-29 12:38 | 52.31184 | 4.75815 | 0 ft | 0 kts | 266° |
| 2026-04-29 12:53 | 52.31185 | 4.75835 | -1 ft | 2 kts | 266° |
| 2026-04-29 12:53 | 52.31186 | 4.75860 | -1 ft | 2 kts | 266° |
| 2026-04-29 12:54 | 52.31187 | 4.75885 | -1 ft | 2 kts | 266° |
| 2026-04-29 12:54 | 52.31188 | 4.75911 | -1 ft | 2 kts | 266° |
| 2026-04-29 12:54 | 52.31189 | 4.75934 | -1 ft | 1 kts | 272° |
| 2026-04-29 12:54 | 52.31184 | 4.75947 | -1 ft | 1 kts | 340° |
| 2026-04-29 12:55 | 52.31177 | 4.75948 | -1 ft | 0 kts | 1° |
| 2026-04-29 12:55 | 52.31174 | 4.75948 | -1 ft | 0 kts | 358° |
| 2026-04-29 12:57 | 52.31181 | 4.75948 | -1 ft | 4 kts | 356° |
| 2026-04-29 12:57 | 52.31238 | 4.75942 | -1 ft | 11 kts | 356° |
| 2026-04-29 12:57 | 52.31345 | 4.75929 | -1 ft | 17 kts | 356° |
| 2026-04-29 12:57 | 52.31434 | 4.75882 | -1 ft | 12 kts | 299° |
| 2026-04-29 12:58 | 52.31438 | 4.75714 | -1 ft | 15 kts | 266° |
| 2026-04-29 12:58 | 52.31430 | 4.75500 | -1 ft | 20 kts | 266° |
| 2026-04-29 12:58 | 52.31421 | 4.75244 | -1 ft | 23 kts | 267° |
| 2026-04-29 12:58 | 52.31411 | 4.74939 | -1 ft | 28 kts | 267° |
| 2026-04-29 12:59 | 52.31400 | 4.74600 | -1 ft | 30 kts | 267° |
| 2026-04-29 12:59 | 52.31396 | 4.74332 | -1 ft | 12 kts | 287° |
| 2026-04-29 12:59 | 52.31477 | 4.74285 | -1 ft | 13 kts | 1° |
| 2026-04-29 12:59 | 52.31577 | 4.74295 | -1 ft | 14 kts | 4° |
| 2026-04-29 13:00 | 52.31700 | 4.74306 | -1 ft | 20 kts | 3° |
| 2026-04-29 13:00 | 52.31857 | 4.74320 | -1 ft | 21 kts | 3° |
| 2026-04-29 13:00 | 52.31995 | 4.74324 | -1 ft | 14 kts | 342° |
| 2026-04-29 13:00 | 52.32033 | 4.74167 | -1 ft | 17 kts | 274° |
| 2026-04-29 13:01 | 52.32041 | 4.73934 | -1 ft | 22 kts | 273° |
| 2026-04-29 13:01 | 52.32051 | 4.73659 | -1 ft | 25 kts | 273° |
| 2026-04-29 13:01 | 52.32079 | 4.73380 | -1 ft | 21 kts | 309° |
| 2026-04-29 13:01 | 52.32192 | 4.73201 | -1 ft | 23 kts | 317° |
| 2026-04-29 13:02 | 52.32324 | 4.73019 | -1 ft | 24 kts | 320° |
| 2026-04-29 13:02 | 52.32464 | 4.72823 | -1 ft | 27 kts | 319° |
| 2026-04-29 13:02 | 52.32617 | 4.72607 | -1 ft | 28 kts | 319° |
| 2026-04-29 13:02 | 52.32757 | 4.72372 | -1 ft | 27 kts | 312° |
| 2026-04-29 13:03 | 52.32888 | 4.72130 | -1 ft | 28 kts | 311° |
| 2026-04-29 13:03 | 52.33024 | 4.71875 | -1 ft | 28 kts | 311° |
| 2026-04-29 13:03 | 52.33076 | 4.71774 | -1 ft | 6 kts | 306° |
| 2026-04-29 13:03 | 52.33117 | 4.71694 | -1 ft | 12 kts | 311° |
| 2026-04-29 13:04 | 52.33139 | 4.71524 | -1 ft | 18 kts | 249° |
| 2026-04-29 13:04 | 52.33038 | 4.71354 | -1 ft | 22 kts | 221° |
| 2026-04-29 13:04 | 52.32921 | 4.71186 | -1 ft | 15 kts | 220° |
| 2026-04-29 13:04 | 52.32900 | 4.71156 | -1 ft | 0 kts | 222° |
| 2026-04-29 13:05 | 52.32900 | 4.71155 | -1 ft | 0 kts | 222° |
| 2026-04-29 13:06 | 52.32892 | 4.71143 | -1 ft | 3 kts | 225° |
| 2026-04-29 13:06 | 52.32886 | 4.71133 | -1 ft | 0 kts | 228° |
| 2026-04-29 13:07 | 52.32885 | 4.71132 | -1 ft | 1 kts | 228° |
| 2026-04-29 13:07 | 52.32865 | 4.71068 | -1 ft | 9 kts | 258° |
| 2026-04-29 13:08 | 52.32869 | 4.70943 | -1 ft | 10 kts | 293° |
| 2026-04-29 13:08 | 52.32924 | 4.70893 | -1 ft | 6 kts | 360° |
| 2026-04-29 13:08 | 52.32928 | 4.70893 | -1 ft | 0 kts | 0° |
| 2026-04-29 13:08 | 52.32966 | 4.70895 | -1 ft | 16 kts | 2° |
| 2026-04-29 13:09 | 52.33410 | 4.70935 | -1 ft | 104 kts | 4° |
| 2026-04-29 13:09 | 52.34455 | 4.71028 | 1 ft | 176 kts | 3° |
| 2026-04-29 13:09 | 52.35875 | 4.71120 | 416 ft | 204 kts | 1° |
| 2026-04-29 13:09 | 52.37302 | 4.71244 | 1569 ft | 192 kts | 4° |
| 2026-04-29 13:10 | 52.38691 | 4.71384 | 2157 ft | 201 kts | 4° |
| 2026-04-29 13:10 | 52.40208 | 4.71528 | 2502 ft | 222 kts | 3° |
| 2026-04-29 13:10 | 52.41849 | 4.71665 | 2951 ft | 235 kts | 0° |
| 2026-04-29 13:10 | 52.43516 | 4.71105 | 3435 ft | 247 kts | 333° |
| 2026-04-29 13:11 | 52.44791 | 4.69055 | 4137 ft | 257 kts | 297° |
| 2026-04-29 13:11 | 52.45274 | 4.66164 | 5052 ft | 262 kts | 271° |
| 2026-04-29 13:11 | 52.44841 | 4.63210 | 5883 ft | 269 kts | 244° |
| 2026-04-29 13:11 | 52.43967 | 4.60334 | 6811 ft | 274 kts | 245° |
| 2026-04-29 13:12 | 52.43130 | 4.57351 | 7679 ft | 279 kts | 246° |
| 2026-04-29 13:12 | 52.42283 | 4.54314 | 8609 ft | 282 kts | 246° |
| 2026-04-29 13:12 | 52.41432 | 4.51266 | 9481 ft | 286 kts | 246° |
| 2026-04-29 13:12 | 52.40582 | 4.48223 | 10171 ft | 296 kts | 246° |
| 2026-04-29 13:13 | 52.39639 | 4.44848 | 10462 ft | 321 kts | 246° |
| 2026-04-29 13:13 | 52.38635 | 4.41259 | 10817 ft | 342 kts | 246° |
| 2026-04-29 13:13 | 52.37564 | 4.37437 | 11084 ft | 363 kts | 246° |
| 2026-04-29 13:13 | 52.36429 | 4.33395 | 11272 ft | 385 kts | 245° |
| 2026-04-29 13:14 | 52.35239 | 4.29161 | 11975 ft | 390 kts | 245° |
| 2026-04-29 13:14 | 52.34052 | 4.24947 | 12479 ft | 400 kts | 245° |
| 2026-04-29 13:14 | 52.32566 | 4.19682 | 13411 ft | 402 kts | 245° |
| 2026-04-29 13:14 | 52.31251 | 4.15465 | 13936 ft | 409 kts | 237° |
| 2026-04-29 13:15 | 52.29562 | 4.11687 | 14722 ft | 408 kts | 232° |
| 2026-04-29 13:15 | 52.28337 | 4.09148 | 14996 ft | 415 kts | 231° |
| 2026-04-29 13:15 | 52.26512 | 4.05340 | 15691 ft | 415 kts | 232° |
| 2026-04-29 13:15 | 52.24052 | 4.00185 | 16341 ft | 423 kts | 232° |
| 2026-04-29 13:16 | 52.22179 | 3.96272 | 17063 ft | 423 kts | 232° |
| 2026-04-29 13:16 | 52.20316 | 3.92387 | 17443 ft | 430 kts | 232° |
| 2026-04-29 13:16 | 52.19056 | 3.89763 | 17891 ft | 429 kts | 232° |
| 2026-04-29 13:16 | 52.17155 | 3.85810 | 18360 ft | 434 kts | 232° |
| 2026-04-29 13:17 | 52.14516 | 3.80331 | 19097 ft | 437 kts | 232° |
| 2026-04-29 13:18 | 52.06874 | 3.64530 | 20843 ft | 449 kts | 232° |
| 2026-04-29 13:18 | 52.04819 | 3.60300 | 21284 ft | 452 kts | 232° |
| 2026-04-29 13:18 | 52.02811 | 3.56172 | 21688 ft | 455 kts | 232° |
| 2026-04-29 13:18 | 52.00821 | 3.52088 | 22078 ft | 457 kts | 232° |
| 2026-04-29 13:19 | 51.98812 | 3.47934 | 22457 ft | 460 kts | 233° |
| 2026-04-29 13:19 | 51.96907 | 3.43753 | 22817 ft | 462 kts | 234° |
| 2026-04-29 13:19 | 51.94946 | 3.39360 | 23184 ft | 465 kts | 234° |
| 2026-04-29 13:19 | 51.92998 | 3.35026 | 23526 ft | 467 kts | 234° |
| 2026-04-29 13:20 | 51.90964 | 3.30524 | 23880 ft | 470 kts | 233° |
| 2026-04-29 13:20 | 51.88928 | 3.25967 | 24210 ft | 472 kts | 236° |
| 2026-04-29 13:20 | 51.87191 | 3.21282 | 24522 ft | 474 kts | 242° |
| 2026-04-29 13:20 | 51.85714 | 3.16155 | 24845 ft | 476 kts | 249° |
| 2026-04-29 13:21 | 51.84956 | 3.10774 | 25082 ft | 479 kts | 266° |
| 2026-04-29 13:21 | 51.84911 | 3.05136 | 25538 ft | 478 kts | 271° |
| 2026-04-29 13:21 | 51.84963 | 2.99497 | 25707 ft | 482 kts | 270° |
| 2026-04-29 13:21 | 51.84981 | 2.93857 | 26129 ft | 481 kts | 270° |
| 2026-04-29 13:22 | 51.84988 | 2.88187 | 26405 ft | 483 kts | 270° |
| 2026-04-29 13:22 | 51.84992 | 2.82523 | 26775 ft | 482 kts | 270° |
| 2026-04-29 13:22 | 51.84993 | 2.76736 | 27133 ft | 482 kts | 270° |
| 2026-04-29 13:22 | 51.84991 | 2.71123 | 27490 ft | 481 kts | 270° |
| 2026-04-29 13:23 | 51.84985 | 2.65403 | 27848 ft | 481 kts | 270° |
| 2026-04-29 13:23 | 51.84977 | 2.59816 | 28199 ft | 480 kts | 270° |
| 2026-04-29 13:23 | 51.84965 | 2.54187 | 28548 ft | 479 kts | 270° |
| 2026-04-29 13:23 | 51.84951 | 2.48536 | 28895 ft | 479 kts | 270° |
| 2026-04-29 13:24 | 51.84935 | 2.42964 | 29234 ft | 478 kts | 270° |
| 2026-04-29 13:24 | 51.84916 | 2.37424 | 29568 ft | 477 kts | 270° |
| 2026-04-29 13:24 | 51.84894 | 2.31990 | 29891 ft | 476 kts | 269° |
| 2026-04-29 13:24 | 51.84870 | 2.26492 | 30213 ft | 476 kts | 269° |
| 2026-04-29 13:25 | 51.84843 | 2.21013 | 30529 ft | 475 kts | 269° |
| 2026-04-29 13:25 | 51.84776 | 2.09103 | 31197 ft | 474 kts | 269° |
| 2026-04-29 13:25 | 51.84741 | 2.03606 | 31500 ft | 473 kts | 269° |
| 2026-04-29 13:26 | 51.84703 | 1.98068 | 31797 ft | 472 kts | 269° |
| 2026-04-29 13:26 | 51.84663 | 1.92566 | 32090 ft | 472 kts | 269° |
| 2026-04-29 13:26 | 51.84620 | 1.87038 | 32378 ft | 471 kts | 269° |
| 2026-04-29 13:26 | 51.84574 | 1.81533 | 32663 ft | 470 kts | 269° |
| 2026-04-29 13:27 | 51.84526 | 1.76025 | 32941 ft | 470 kts | 269° |
| 2026-04-29 13:27 | 51.84475 | 1.70477 | 33218 ft | 469 kts | 269° |
| 2026-04-29 13:27 | 51.84422 | 1.65027 | 33486 ft | 469 kts | 269° |
| 2026-04-29 13:27 | 51.84367 | 1.59556 | 33750 ft | 468 kts | 269° |
| 2026-04-29 13:28 | 51.84308 | 1.54019 | 33977 ft | 468 kts | 269° |
| 2026-04-29 13:28 | 51.84248 | 1.48543 | 34003 ft | 468 kts | 269° |
| 2026-04-29 13:28 | 51.84120 | 1.37693 | 33999 ft | 462 kts | 269° |
| 2026-04-29 13:30 | 51.83534 | 0.95797 | 34000 ft | 462 kts | 268° |
| 2026-04-29 13:31 | 51.83360 | 0.85047 | 33812 ft | 464 kts | 268° |
| 2026-04-29 13:31 | 51.83176 | 0.74340 | 33844 ft | 460 kts | 268° |
| 2026-04-29 13:32 | 51.82983 | 0.63608 | 33843 ft | 462 kts | 268° |
| 2026-04-29 13:32 | 51.82781 | 0.52967 | 33841 ft | 462 kts | 268° |
| 2026-04-29 13:33 | 51.82572 | 0.42426 | 33841 ft | 462 kts | 268° |
| 2026-04-29 13:33 | 51.82355 | 0.32006 | 33842 ft | 462 kts | 268° |
| 2026-04-29 13:34 | 51.82131 | 0.21631 | 33842 ft | 462 kts | 268° |
| 2026-04-29 13:34 | 51.81895 | 0.11158 | 33842 ft | 462 kts | 268° |
| 2026-04-29 13:35 | 51.81648 | 0.00613 | 33661 ft | 465 kts | 268° |
| 2026-04-29 13:35 | 51.81518 | -0.04808 | 33399 ft | 464 kts | 268° |
| 2026-04-29 13:36 | 51.81156 | -0.26156 | 31410 ft | 464 kts | 275° |
| 2026-04-29 13:36 | 51.81613 | -0.31391 | 30904 ft | 467 kts | 283° |
| 2026-04-29 13:37 | 51.82220 | -0.34786 | 30563 ft | 467 kts | 290° |